Time;durP1;ratioP1;P1;durP2;ratioP2;P2;SDS_P1;SDS_P2;PMS_P1;PMS_P2;Temp;Humidity;BMP_temperature;BMP_pressure;BME280_temperature;BME280_humidity;BME280_pressure;Samples;Min_cycle;Max_cycle;Signal;HPM_P1;HPM_P2
2022/03/14 00:00:44;;;;;;;29.13;20.27;;;12.50;56.40;;;;;;5059015;28;20440;-75
2022/03/14 00:03:13;;;;;;;30.93;19.13;;;12.30;56.00;;;;;;5061853;28;20452;-74
2022/03/14 00:05:40;;;;;;;28.03;20.67;;;12.30;55.50;;;;;;5055626;28;20540;-74
2022/03/14 00:08:06;;;;;;;30.10;20.87;;;12.30;55.40;;;;;;5047740;28;20884;-74
2022/03/14 00:10:34;;;;;;;30.33;21.17;;;12.40;55.70;;;;;;5042297;28;20441;-75
2022/03/14 00:13:01;;;;;;;29.80;20.90;;;12.40;56.00;;;;;;5063015;28;20962;-75
2022/03/14 00:15:32;;;;;;;31.90;19.80;;;12.40;56.60;;;;;;5058421;28;20469;-74
2022/03/14 00:18:01;;;;;;;30.20;19.30;;;12.40;57.40;;;;;;5057006;28;20819;-75
2022/03/14 00:20:29;;;;;;;27.77;20.33;;;12.30;58.40;;;;;;5061687;28;20811;-73
2022/03/14 00:22:56;;;;;;;24.73;17.63;;;12.30;59.40;;;;;;5057946;28;20454;-73
2022/03/14 00:25:22;;;;;;;26.90;17.60;;;12.20;61.80;;;;;;5061215;28;20433;-76
2022/03/14 00:27:48;;;;;;;19.93;14.73;;;12.20;64.00;;;;;;5058576;28;20517;-75
2022/03/14 00:30:13;;;;;;;21.73;15.77;;;12.20;68.50;;;;;;5060855;28;20614;-74
2022/03/14 00:32:39;;;;;;;20.03;14.00;;;12.20;71.60;;;;;;5055463;28;20204;-74
2022/03/14 00:35:09;;;;;;;19.37;13.10;;;12.20;75.70;;;;;;5036956;28;20183;-75
2022/03/14 00:37:36;;;;;;;16.37;11.80;;;12.20;79.70;;;;;;5058744;28;20434;-74
2022/03/14 00:40:04;;;;;;;16.00;12.50;;;12.20;84.70;;;;;;5056815;28;20434;-74
2022/03/14 00:42:30;;;;;;;15.70;11.43;;;12.30;89.40;;;;;;5059097;28;20593;-73
2022/03/14 00:44:55;;;;;;;11.33;8.60;;;12.20;93.00;;;;;;5059012;28;21002;-74
2022/03/14 00:47:21;;;;;;;8.87;7.03;;;12.10;95.70;;;;;;5055170;28;20437;-75
2022/03/14 00:49:47;;;;;;;6.30;5.30;;;12.10;97.90;;;;;;5058679;28;20266;-74
2022/03/14 00:52:16;;;;;;;5.07;3.97;;;12.00;99.70;;;;;;5046696;28;21665;-74
2022/03/14 00:54:42;;;;;;;6.80;3.60;;;12.00;99.90;;;;;;5059805;28;20487;-75
2022/03/14 00:57:08;;;;;;;3.67;2.93;;;11.90;99.90;;;;;;5057569;28;20497;-75
2022/03/14 00:59:34;;;;;;;3.20;2.90;;;11.80;99.90;;;;;;5043494;28;20532;-75
2022/03/14 01:02:00;;;;;;;4.80;3.50;;;11.80;99.90;;;;;;5057459;28;20202;-76
2022/03/14 01:04:26;;;;;;;3.37;3.07;;;11.80;99.90;;;;;;5047382;28;20195;-75
2022/03/14 01:06:51;;;;;;;3.40;2.80;;;11.60;99.90;;;;;;5061365;28;20187;-75
2022/03/14 01:09:17;;;;;;;3.17;2.80;;;11.40;99.90;;;;;;5059456;28;20938;-75
2022/03/14 01:11:44;;;;;;;3.83;2.80;;;11.40;99.90;;;;;;5041029;28;20233;-75
2022/03/14 01:14:10;;;;;;;3.57;2.80;;;11.20;99.90;;;;;;5060190;28;20329;-75
2022/03/14 01:16:37;;;;;;;3.60;2.47;;;11.00;99.90;;;;;;5040896;28;21088;-73
2022/03/14 01:19:03;;;;;;;2.60;2.03;;;11.00;99.90;;;;;;5054294;28;20853;-76
2022/03/14 01:21:29;;;;;;;3.07;2.20;;;10.90;99.90;;;;;;5058921;28;20465;-75
2022/03/14 01:23:56;;;;;;;3.93;2.37;;;10.80;99.90;;;;;;5057710;28;20430;-75
2022/03/14 01:26:22;;;;;;;2.43;2.00;;;10.60;99.90;;;;;;5056339;28;20437;-74
2022/03/14 01:28:48;;;;;;;2.40;2.10;;;10.50;99.90;;;;;;5059835;28;20548;-75
2022/03/14 01:31:14;;;;;;;2.80;2.17;;;10.50;99.90;;;;;;5058305;28;20203;-75
2022/03/14 01:33:39;;;;;;;7.90;3.20;;;10.50;99.90;;;;;;5059852;28;20755;-74
2022/03/14 01:36:05;;;;;;;2.53;1.80;;;10.50;99.90;;;;;;5060129;28;21109;-74
2022/03/14 01:38:31;;;;;;;2.10;1.90;;;10.40;99.90;;;;;;5056390;28;20244;-75
2022/03/14 01:40:57;;;;;;;2.70;2.00;;;10.20;99.90;;;;;;5058187;28;20565;-75
2022/03/14 01:43:24;;;;;;;2.93;2.03;;;10.10;99.90;;;;;;5055053;28;20207;-74
2022/03/14 01:45:50;;;;;;;2.13;1.77;;;10.20;99.90;;;;;;5057917;28;20176;-74
2022/03/14 01:48:15;;;;;;;2.10;1.60;;;10.20;99.90;;;;;;5037958;28;20479;-75
2022/03/14 01:50:41;;;;;;;2.50;1.70;;;10.20;99.90;;;;;;5058690;28;20942;-75
2022/03/14 01:53:07;;;;;;;2.63;1.70;;;10.20;99.90;;;;;;5059555;28;20212;-75
2022/03/14 01:55:34;;;;;;;2.30;1.70;;;10.10;99.90;;;;;;5056329;28;20210;-74
2022/03/14 01:58:03;;;;;;;1.57;1.27;;;10.10;99.90;;;;;;5058756;28;20981;-73
2022/03/14 02:00:29;;;;;;;1.77;1.43;;;10.20;99.90;;;;;;5043032;28;20492;-74
2022/03/14 02:02:54;;;;;;;1.90;1.70;;;10.00;99.90;;;;;;5059422;28;20523;-74
2022/03/14 02:05:20;;;;;;;2.00;1.60;;;10.00;99.90;;;;;;5054697;28;20242;-75
2022/03/14 02:07:46;;;;;;;2.23;1.30;;;10.00;99.90;;;;;;5054078;28;20203;-75
2022/03/14 02:10:11;;;;;;;1.90;1.50;;;10.00;99.90;;;;;;5038338;28;20632;-74
2022/03/14 02:12:42;;;;;;;1.93;1.40;;;10.00;99.90;;;;;;5055386;28;20289;-75
2022/03/14 02:15:08;;;;;;;1.30;1.00;;;9.90;99.90;;;;;;5040436;28;20274;-74
2022/03/14 02:17:34;;;;;;;2.10;1.30;;;9.90;99.90;;;;;;5039395;28;20931;-74
2022/03/14 02:20:00;;;;;;;1.90;1.50;;;9.90;99.90;;;;;;5054985;28;20448;-74
2022/03/14 02:22:26;;;;;;;1.50;1.20;;;9.90;99.90;;;;;;5044492;28;20203;-74
2022/03/14 02:24:52;;;;;;;1.67;1.43;;;9.90;99.90;;;;;;5057123;28;20426;-75
2022/03/14 02:27:18;;;;;;;2.00;1.40;;;10.00;99.90;;;;;;5053954;28;20433;-75
2022/03/14 02:29:45;;;;;;;2.00;1.40;;;10.00;99.90;;;;;;5057948;28;20184;-74
2022/03/14 02:32:11;;;;;;;1.70;1.50;;;10.00;99.90;;;;;;5058187;28;20530;-74
2022/03/14 02:34:38;;;;;;;3.10;1.23;;;10.00;99.90;;;;;;5054945;28;20437;-75
2022/03/14 02:37:04;;;;;;;2.07;1.40;;;9.90;99.90;;;;;;5059647;28;20473;-73
2022/03/14 02:39:32;;;;;;;2.80;1.30;;;10.00;99.90;;;;;;5055124;28;20438;-73
2022/03/14 02:41:59;;;;;;;2.40;1.50;;;10.10;99.90;;;;;;5061537;28;20617;-75
2022/03/14 02:44:25;;;;;;;1.57;1.20;;;10.20;99.90;;;;;;5041310;28;20504;-74
2022/03/14 02:46:50;;;;;;;1.63;1.40;;;10.30;99.90;;;;;;5056424;28;20528;-74
2022/03/14 02:49:16;;;;;;;2.07;1.47;;;10.20;99.90;;;;;;5058215;28;20233;-74
2022/03/14 02:51:46;;;;;;;1.60;1.30;;;10.20;99.90;;;;;;5056742;28;20213;-73
2022/03/14 02:54:12;;;;;;;1.80;1.50;;;10.20;99.90;;;;;;5056560;28;20274;-74
2022/03/14 02:56:39;;;;;;;2.63;1.50;;;10.30;99.90;;;;;;5034200;28;20485;-75
2022/03/14 02:59:07;;;;;;;1.60;1.40;;;10.20;99.90;;;;;;5059697;28;20460;-75
2022/03/14 03:01:36;;;;;;;1.70;1.30;;;10.20;99.90;;;;;;5056653;28;21188;-74
2022/03/14 03:04:02;;;;;;;1.80;1.40;;;10.20;99.90;;;;;;5055594;28;21123;-73
2022/03/14 03:06:28;;;;;;;1.57;1.20;;;10.30;99.90;;;;;;5039689;28;20463;-74
2022/03/14 03:08:54;;;;;;;2.17;1.53;;;10.20;99.90;;;;;;5055130;28;20425;-73
2022/03/14 03:11:21;;;;;;;2.27;1.50;;;10.20;99.90;;;;;;5055574;28;21265;-73
2022/03/14 03:13:47;;;;;;;1.80;1.40;;;10.20;99.90;;;;;;5055054;28;20460;-74
2022/03/14 03:16:15;;;;;;;3.40;1.30;;;10.10;99.90;;;;;;5056393;28;20500;-74
2022/03/14 03:18:41;;;;;;;1.60;1.30;;;10.20;99.90;;;;;;5056075;28;20437;-75
2022/03/14 03:21:07;;;;;;;1.67;1.40;;;10.10;99.90;;;;;;5053651;28;20934;-74
2022/03/14 03:23:35;;;;;;;2.30;1.83;;;10.00;99.90;;;;;;5053642;28;20180;-74
2022/03/14 03:26:02;;;;;;;2.67;1.53;;;9.90;99.90;;;;;;5056642;28;20272;-75
2022/03/14 03:28:28;;;;;;;1.67;1.50;;;9.90;99.90;;;;;;5054410;28;20508;-74
2022/03/14 03:30:54;;;;;;;2.93;2.00;;;10.00;99.90;;;;;;5042554;28;20514;-74
2022/03/14 03:33:19;;;;;;;2.37;1.90;;;9.80;99.90;;;;;;5058641;28;21145;-74
2022/03/14 03:35:45;;;;;;;2.30;1.90;;;9.70;99.90;;;;;;5059902;28;20261;-73
2022/03/14 03:38:11;;;;;;;3.23;1.97;;;9.70;99.90;;;;;;5059067;28;20286;-73
2022/03/14 03:40:36;;;;;;;2.73;2.33;;;9.70;99.90;;;;;;5060514;28;20176;-74
2022/03/14 03:43:02;;;;;;;2.30;2.10;;;9.70;99.90;;;;;;5059766;28;20755;-76
2022/03/14 03:45:27;;;;;;;5.37;3.13;;;9.70;99.90;;;;;;5059743;28;20195;-75
2022/03/14 03:47:54;;;;;;;5.13;1.80;;;9.70;99.90;;;;;;5059931;28;20190;-74
2022/03/14 03:50:20;;;;;;;2.50;1.80;;;9.70;99.90;;;;;;5059220;28;20321;-74
2022/03/14 03:52:46;;;;;;;3.13;2.37;;;9.70;99.90;;;;;;5058117;28;20475;-76
2022/03/14 03:55:12;;;;;;;5.33;2.27;;;9.60;99.90;;;;;;5060719;28;20449;-77
2022/03/14 03:57:37;;;;;;;2.77;2.30;;;9.60;99.90;;;;;;5041104;28;20187;-77
2022/03/14 04:00:04;;;;;;;2.33;1.80;;;9.70;99.90;;;;;;5047650;28;20433;-75
2022/03/14 04:02:35;;;;;;;3.80;2.10;;;9.60;99.90;;;;;;5044643;28;20211;-75
2022/03/14 04:05:02;;;;;;;2.27;2.07;;;9.70;99.90;;;;;;5060248;28;20550;-74
2022/03/14 04:07:30;;;;;;;2.20;1.97;;;9.70;99.90;;;;;;5059924;28;20442;-75
2022/03/14 04:09:57;;;;;;;2.80;2.13;;;9.70;99.90;;;;;;5059875;28;20545;-76
2022/03/14 04:12:24;;;;;;;3.70;2.13;;;9.70;99.90;;;;;;5061024;28;20963;-74
2022/03/14 04:14:51;;;;;;;2.93;2.20;;;9.80;99.90;;;;;;5060219;28;20441;-74
2022/03/14 04:17:18;;;;;;;3.60;2.30;;;9.80;99.90;;;;;;5059727;28;20928;-75
2022/03/14 04:19:44;;;;;;;5.30;2.07;;;9.80;99.90;;;;;;5060066;28;21214;-75
2022/03/14 04:22:10;;;;;;;2.80;1.97;;;9.80;99.90;;;;;;5058338;28;20446;-76
2022/03/14 04:24:36;;;;;;;3.00;2.13;;;9.70;99.90;;;;;;5058257;28;20441;-74
2022/03/14 04:27:02;;;;;;;2.33;1.97;;;9.80;99.90;;;;;;5061857;28;20502;-74
2022/03/14 04:29:28;;;;;;;3.03;2.23;;;9.70;99.90;;;;;;5046281;28;20425;-74
2022/03/14 04:31:54;;;;;;;2.00;1.63;;;9.60;99.90;;;;;;5060260;28;20554;-75
2022/03/14 04:34:20;;;;;;;2.43;1.70;;;9.70;99.90;;;;;;5061601;28;20473;-73
2022/03/14 04:36:49;;;;;;;2.33;1.80;;;9.50;99.90;;;;;;5042589;28;20560;-73
2022/03/14 04:39:14;;;;;;;2.57;1.90;;;9.60;99.90;;;;;;5059627;28;20594;-74
2022/03/14 04:41:40;;;;;;;3.07;1.87;;;9.60;99.90;;;;;;5060183;28;20449;-75
2022/03/14 04:44:06;;;;;;;2.40;1.97;;;9.60;99.90;;;;;;5059566;28;20176;-75
2022/03/14 04:46:32;;;;;;;2.13;1.70;;;9.60;99.90;;;;;;5058662;28;20190;-75
2022/03/14 04:48:58;;;;;;;2.17;1.83;;;9.60;99.90;;;;;;5061486;28;20293;-74
2022/03/14 04:51:24;;;;;;;2.00;1.70;;;9.60;99.90;;;;;;5060706;28;20482;-74
2022/03/14 04:53:50;;;;;;;2.97;1.90;;;9.60;99.90;;;;;;5057732;28;20176;-75
2022/03/14 04:56:16;;;;;;;2.33;1.87;;;9.60;99.90;;;;;;5056408;28;20520;-75
2022/03/14 04:58:41;;;;;;;2.90;2.30;;;9.50;99.90;;;;;;5060225;28;20219;-76
2022/03/14 05:01:07;;;;;;;3.27;2.40;;;9.50;99.90;;;;;;5058977;28;20187;-76
2022/03/14 05:03:35;;;;;;;2.93;1.70;;;9.50;99.90;;;;;;5055781;28;20179;-76
2022/03/14 05:06:00;;;;;;;2.50;1.70;;;9.40;99.90;;;;;;5060645;28;20221;-76
2022/03/14 05:08:26;;;;;;;2.33;2.00;;;9.40;99.90;;;;;;5060723;28;20434;-75
2022/03/14 05:10:51;;;;;;;2.77;2.10;;;9.40;99.90;;;;;;5061585;28;21509;-75
2022/03/14 05:13:17;;;;;;;2.17;1.70;;;9.50;99.90;;;;;;5059937;28;20218;-75
2022/03/14 05:15:43;;;;;;;3.70;1.77;;;9.60;99.90;;;;;;5059217;28;20218;-75
2022/03/14 05:18:09;;;;;;;2.00;1.60;;;9.60;99.90;;;;;;5058728;28;20695;-76
2022/03/14 05:20:36;;;;;;;2.80;1.77;;;9.60;99.90;;;;;;5057313;28;20438;-76
2022/03/14 05:23:03;;;;;;;3.73;2.07;;;9.60;99.90;;;;;;5061151;28;20236;-73
2022/03/14 05:25:30;;;;;;;2.20;1.90;;;9.60;99.90;;;;;;5055866;28;20470;-74
2022/03/14 05:27:56;;;;;;;2.27;1.93;;;9.50;99.90;;;;;;5039419;28;20433;-76
2022/03/14 05:30:23;;;;;;;2.57;2.00;;;9.50;99.90;;;;;;5062629;28;20421;-76
2022/03/14 05:32:49;;;;;;;5.23;2.07;;;9.50;99.90;;;;;;5059636;28;20452;-76
2022/03/14 05:35:18;;;;;;;2.37;1.93;;;9.50;99.90;;;;;;5059197;28;20466;-76
2022/03/14 05:37:45;;;;;;;8.47;2.10;;;9.40;99.90;;;;;;5058449;28;20434;-75
2022/03/14 05:40:15;;;;;;;2.30;1.80;;;9.50;99.90;;;;;;5040675;28;20422;-75
2022/03/14 05:42:42;;;;;;;2.20;1.80;;;9.50;99.90;;;;;;5056914;28;20445;-73
2022/03/14 05:45:09;;;;;;;3.80;1.83;;;9.50;99.90;;;;;;5059564;28;20586;-74
2022/03/14 05:47:35;;;;;;;2.70;1.80;;;9.40;99.90;;;;;;5058146;28;20440;-74
2022/03/14 05:50:01;;;;;;;2.00;1.60;;;9.40;99.90;;;;;;5059539;28;20475;-74
2022/03/14 05:52:27;;;;;;;3.00;2.07;;;9.40;99.90;;;;;;5059427;28;20453;-75
2022/03/14 05:54:53;;;;;;;3.37;1.90;;;9.30;99.90;;;;;;5060315;28;20437;-75
2022/03/14 05:57:18;;;;;;;4.23;2.03;;;9.30;99.90;;;;;;5056758;28;20462;-73
2022/03/14 05:59:44;;;;;;;2.40;1.60;;;9.30;99.90;;;;;;5056293;28;20210;-74
2022/03/14 06:02:10;;;;;;;2.80;1.70;;;9.30;99.90;;;;;;5058104;28;20966;-74
2022/03/14 06:04:37;;;;;;;2.83;1.67;;;9.30;99.90;;;;;;5034683;28;20183;-75
2022/03/14 06:07:03;;;;;;;2.77;2.10;;;9.30;99.90;;;;;;5056547;28;20510;-74
2022/03/14 06:09:29;;;;;;;4.30;2.23;;;9.30;99.90;;;;;;5056963;28;20927;-75
2022/03/14 06:11:55;;;;;;;2.80;2.10;;;9.30;99.90;;;;;;5058136;28;20199;-74
2022/03/14 06:14:21;;;;;;;2.43;1.90;;;9.10;99.90;;;;;;5059827;28;21722;-74
2022/03/14 06:16:46;;;;;;;4.37;1.90;;;9.20;99.90;;;;;;5056224;28;20709;-75
2022/03/14 06:19:12;;;;;;;1.93;1.50;;;9.30;99.90;;;;;;5056927;28;20176;-75
2022/03/14 06:21:39;;;;;;;3.53;2.20;;;9.30;99.90;;;;;;5056634;28;20196;-76
2022/03/14 06:24:06;;;;;;;5.67;1.80;;;9.30;99.90;;;;;;5054728;28;20172;-74
2022/03/14 06:26:34;;;;;;;3.10;2.00;;;9.10;99.90;;;;;;5056539;28;20460;-74
2022/03/14 06:29:00;;;;;;;13.33;2.80;;;9.20;99.90;;;;;;5055844;28;20447;-74
2022/03/14 06:31:26;;;;;;;4.40;2.17;;;9.20;99.90;;;;;;5052096;28;20588;-75
2022/03/14 06:33:52;;;;;;;4.70;2.33;;;9.10;99.90;;;;;;5054818;28;20516;-74
2022/03/14 06:36:38;;;;;;;3.17;1.87;;;9.00;99.90;;;;;;5057727;28;21049;-76
2022/03/14 06:39:03;;;;;;;2.63;1.80;;;9.00;99.90;;;;;;5055183;28;20277;-74
2022/03/14 06:41:29;;;;;;;3.57;2.17;;;9.10;99.90;;;;;;5053246;28;20568;-74
2022/03/14 06:43:56;;;;;;;3.47;1.97;;;9.10;99.90;;;;;;5041271;28;20178;-75
2022/03/14 06:46:22;;;;;;;6.00;1.83;;;9.10;99.90;;;;;;5055775;28;20199;-75
2022/03/14 06:48:48;;;;;;;5.40;2.10;;;9.10;99.90;;;;;;5055182;28;21020;-76
2022/03/14 06:51:14;;;;;;;2.83;2.00;;;9.10;99.90;;;;;;5039488;28;20966;-74
2022/03/14 06:53:39;;;;;;;5.93;2.03;;;9.10;99.90;;;;;;5055467;28;20953;-74
2022/03/14 06:56:06;;;;;;;4.53;2.10;;;9.20;99.90;;;;;;5054190;28;20206;-77
2022/03/14 06:58:34;;;;;;;3.50;1.70;;;9.20;99.90;;;;;;5054604;28;20855;-75
2022/03/14 07:01:00;;;;;;;2.90;1.70;;;9.20;99.90;;;;;;5040885;28;20429;-76
2022/03/14 07:03:27;;;;;;;3.40;1.70;;;9.20;99.90;;;;;;5057803;28;20427;-75
2022/03/14 07:05:53;;;;;;;1.90;1.57;;;9.20;99.90;;;;;;5055975;28;20511;-73
2022/03/14 07:08:18;;;;;;;3.97;2.17;;;9.20;99.90;;;;;;5039105;28;20437;-74
2022/03/14 07:10:44;;;;;;;4.37;2.00;;;9.20;99.90;;;;;;5064245;28;20428;-75
2022/03/14 07:13:10;;;;;;;8.50;1.93;;;9.20;99.90;;;;;;5056302;28;20295;-74
2022/03/14 07:15:36;;;;;;;3.80;1.63;;;9.10;99.90;;;;;;5062591;28;20238;-74
2022/03/14 07:18:01;;;;;;;3.63;1.70;;;9.20;99.90;;;;;;5058606;28;20627;-74
2022/03/14 07:20:27;;;;;;;2.23;1.60;;;9.20;99.90;;;;;;5059632;28;20425;-74
2022/03/14 07:22:58;;;;;;;2.63;1.57;;;9.10;99.90;;;;;;5056311;28;20227;-74
2022/03/14 07:25:28;;;;;;;3.70;1.63;;;9.10;99.90;;;;;;5058153;28;20257;-73
2022/03/14 07:27:58;;;;;;;2.93;1.70;;;9.30;99.90;;;;;;5063030;28;20504;-73
2022/03/14 07:30:24;;;;;;;4.00;1.90;;;9.30;99.90;;;;;;5061450;28;20437;-73
2022/03/14 07:32:49;;;;;;;3.00;1.70;;;9.40;99.90;;;;;;5061713;28;20449;-75
2022/03/14 07:35:15;;;;;;;2.20;1.60;;;9.40;99.90;;;;;;5059817;28;20907;-73
2022/03/14 07:37:41;;;;;;;5.10;1.90;;;9.40;99.90;;;;;;5058520;28;20179;-73
2022/03/14 07:40:09;;;;;;;4.90;2.00;;;9.40;99.90;;;;;;5046964;28;20544;-72
2022/03/14 07:42:42;;;;;;;7.30;1.93;;;9.50;99.90;;;;;;5061417;28;20203;-73
2022/03/14 07:45:10;;;;;;;3.47;1.70;;;9.50;99.90;;;;;;5060787;28;20449;-74
2022/03/14 07:47:37;;;;;;;2.57;1.37;;;9.50;99.90;;;;;;5056316;28;20453;-74
2022/03/14 07:50:05;;;;;;;3.50;1.87;;;9.50;99.90;;;;;;5058771;28;20818;-72
2022/03/14 07:52:31;;;;;;;2.20;1.70;;;9.50;99.90;;;;;;5062935;28;20467;-75
2022/03/14 07:54:57;;;;;;;3.60;2.03;;;9.50;99.90;;;;;;5044140;28;20453;-73
2022/03/14 07:57:23;;;;;;;8.33;1.80;;;9.50;99.90;;;;;;5059782;28;20476;-72
2022/03/14 07:59:48;;;;;;;2.13;1.70;;;9.60;99.90;;;;;;5057383;28;20184;-74
2022/03/14 08:02:14;;;;;;;3.40;1.60;;;9.50;99.90;;;;;;5044639;28;20441;-74
2022/03/14 08:04:40;;;;;;;2.20;1.83;;;9.50;99.90;;;;;;5062432;28;20270;-74
2022/03/14 08:07:06;;;;;;;4.13;2.03;;;9.70;99.90;;;;;;5063892;28;20443;-74
2022/03/14 08:09:32;;;;;;;2.60;1.80;;;9.70;99.90;;;;;;5062684;28;20193;-76
2022/03/14 08:12:00;;;;;;;3.33;2.03;;;9.80;99.90;;;;;;5045205;28;20452;-74
2022/03/14 08:14:27;;;;;;;1.90;1.70;;;9.90;99.90;;;;;;5061232;28;20437;-73
2022/03/14 08:16:53;;;;;;;6.57;2.60;;;9.80;99.90;;;;;;5060947;28;20468;-72
2022/03/14 08:19:19;;;;;;;2.97;2.07;;;9.90;99.90;;;;;;5064447;28;20916;-72
2022/03/14 08:21:46;;;;;;;2.60;1.63;;;10.00;99.90;;;;;;5060503;28;20943;-75
2022/03/14 08:24:12;;;;;;;2.63;1.90;;;10.00;99.90;;;;;;5062651;28;20448;-75
2022/03/14 08:26:38;;;;;;;2.57;1.80;;;10.00;99.90;;;;;;5064954;28;21001;-74
2022/03/14 08:29:04;;;;;;;4.50;2.00;;;10.00;99.90;;;;;;5043230;28;20287;-74
2022/03/14 08:31:32;;;;;;;2.27;2.00;;;10.00;99.90;;;;;;5063958;28;20552;-72
2022/03/14 08:33:58;;;;;;;3.80;1.73;;;9.90;99.90;;;;;;5045700;28;20946;-73
2022/03/14 08:36:23;;;;;;;4.20;1.90;;;10.00;99.90;;;;;;5058138;28;20471;-72
2022/03/14 08:38:49;;;;;;;4.37;1.80;;;10.10;99.90;;;;;;5060946;28;20433;-71
2022/03/14 08:41:18;;;;;;;3.97;1.80;;;10.20;99.90;;;;;;5056017;28;20210;-72
2022/03/14 08:43:44;;;;;;;2.30;1.97;;;10.20;99.90;;;;;;5040743;28;20186;-73
2022/03/14 08:46:11;;;;;;;6.23;2.13;;;10.10;99.90;;;;;;5046515;28;20458;-73
2022/03/14 08:48:37;;;;;;;4.30;2.07;;;10.10;99.90;;;;;;5060395;28;20514;-73
2022/03/14 08:51:03;;;;;;;4.63;2.17;;;10.20;99.90;;;;;;5058142;28;20991;-73
2022/03/14 08:53:29;;;;;;;2.43;1.80;;;10.20;99.90;;;;;;5060440;28;20956;-73
2022/03/14 08:55:55;;;;;;;4.70;1.77;;;10.30;99.90;;;;;;5059513;28;20501;-71
2022/03/14 08:58:24;;;;;;;5.53;1.57;;;10.30;99.90;;;;;;5056983;28;20884;-73
2022/03/14 09:00:49;;;;;;;4.87;1.60;;;10.30;99.90;;;;;;5040522;28;20249;-75
2022/03/14 09:03:15;;;;;;;5.10;1.97;;;10.40;99.90;;;;;;5054167;28;20454;-73
2022/03/14 09:05:41;;;;;;;11.60;3.43;;;10.50;99.90;;;;;;5055876;28;20274;-72
2022/03/14 09:08:07;;;;;;;8.50;2.57;;;10.60;99.90;;;;;;5057106;28;20211;-75
2022/03/14 09:10:36;;;;;;;2.97;1.70;;;10.70;99.90;;;;;;5038939;28;20574;-75
2022/03/14 09:13:03;;;;;;;5.50;2.00;;;10.80;99.90;;;;;;5060236;28;20282;-74
2022/03/14 09:15:29;;;;;;;4.63;1.83;;;10.90;99.90;;;;;;5059500;28;20454;-76
2022/03/14 09:17:57;;;;;;;5.83;1.90;;;11.00;99.90;;;;;;5058719;28;20430;-74
2022/03/14 09:20:24;;;;;;;5.17;2.00;;;11.00;99.90;;;;;;5059801;28;20429;-75
2022/03/14 09:22:50;;;;;;;3.60;1.93;;;11.00;99.90;;;;;;5056151;28;20438;-74
2022/03/14 09:25:17;;;;;;;7.30;2.13;;;11.10;99.90;;;;;;5059300;28;20420;-74
2022/03/14 09:27:43;;;;;;;2.97;1.67;;;11.00;99.90;;;;;;5056578;28;20826;-75
2022/03/14 09:30:11;;;;;;;5.73;2.00;;;10.90;99.90;;;;;;5040912;28;20458;-71
2022/03/14 09:32:36;;;;;;;3.17;2.00;;;11.00;99.90;;;;;;5042777;28;20492;-72
2022/03/14 09:35:04;;;;;;;6.07;2.20;;;11.10;99.90;;;;;;5038190;28;20464;-72
2022/03/14 09:37:30;;;;;;;3.00;1.80;;;11.10;99.90;;;;;;5056035;28;20202;-74
2022/03/14 09:39:56;;;;;;;7.97;1.73;;;11.10;99.90;;;;;;5058043;28;20847;-72
2022/03/14 09:42:24;;;;;;;5.17;1.70;;;11.10;99.90;;;;;;5057964;28;20449;-73
2022/03/14 09:44:53;;;;;;;5.53;2.33;;;11.20;99.90;;;;;;5043624;28;20426;-72
2022/03/14 09:47:23;;;;;;;4.07;2.13;;;11.20;99.90;;;;;;5045345;28;20441;-71
2022/03/14 09:49:54;;;;;;;2.70;1.80;;;11.30;99.90;;;;;;5044303;28;20425;-72
2022/03/14 09:52:22;;;;;;;3.93;1.80;;;11.30;99.90;;;;;;5041009;28;20445;-73
2022/03/14 09:54:49;;;;;;;5.97;2.10;;;11.30;99.90;;;;;;5055331;28;20529;-73
2022/03/14 09:57:15;;;;;;;3.97;2.13;;;11.30;99.90;;;;;;5055409;28;20600;-74
2022/03/14 09:59:42;;;;;;;4.40;2.03;;;11.40;99.90;;;;;;5057963;28;20675;-74
2022/03/14 10:02:12;;;;;;;7.60;2.00;;;11.40;99.90;;;;;;5039137;28;20192;-74
2022/03/14 10:04:38;;;;;;;12.23;2.70;;;11.50;99.90;;;;;;5038944;28;20473;-75
2022/03/14 10:07:05;;;;;;;4.50;2.30;;;11.60;99.90;;;;;;5054230;28;20434;-74
2022/03/14 10:09:31;;;;;;;3.47;1.80;;;11.80;99.90;;;;;;5056689;28;20437;-75
2022/03/14 10:11:57;;;;;;;3.23;1.73;;;11.80;99.90;;;;;;5057292;28;20472;-71
2022/03/14 10:14:23;;;;;;;2.43;1.70;;;11.90;99.90;;;;;;5056504;28;20610;-72
2022/03/14 10:16:51;;;;;;;2.77;1.93;;;12.00;99.90;;;;;;5055248;28;20828;-73
2022/03/14 10:19:20;;;;;;;4.20;2.00;;;12.10;99.90;;;;;;5055192;28;21142;-73
2022/03/14 10:21:46;;;;;;;3.50;2.17;;;12.20;99.90;;;;;;5058116;28;20532;-72
2022/03/14 10:24:13;;;;;;;6.40;2.80;;;12.20;99.90;;;;;;5056002;28;21153;-72
2022/03/14 10:26:45;;;;;;;7.20;2.20;;;12.10;99.90;;;;;;5054370;28;20469;-72
2022/03/14 10:29:13;;;;;;;7.67;2.27;;;12.10;99.90;;;;;;5055496;28;20472;-72
2022/03/14 10:31:42;;;;;;;5.13;2.30;;;11.90;99.90;;;;;;5055973;28;21017;-72
2022/03/14 10:34:11;;;;;;;5.73;2.30;;;11.90;99.90;;;;;;5053410;28;20434;-72
2022/03/14 10:36:42;;;;;;;5.93;2.47;;;11.90;99.90;;;;;;5054038;28;20565;-73
2022/03/14 10:39:34;;;;;;;6.20;2.03;;;12.00;99.90;;;;;;5056137;28;20830;-72
2022/03/14 10:42:05;;;;;;;4.90;2.23;;;11.90;99.90;;;;;;5053545;28;20486;-76
2022/03/14 10:44:32;;;;;;;2.17;1.57;;;11.90;99.90;;;;;;5059227;28;20435;-72
2022/03/14 10:46:59;;;;;;;7.13;2.00;;;12.00;99.90;;;;;;5059061;28;20425;-73
2022/03/14 10:49:34;;;;;;;3.20;1.90;;;12.10;99.90;;;;;;5055799;28;20432;-72
2022/03/14 10:52:02;;;;;;;6.37;2.10;;;12.20;99.90;;;;;;5058632;28;20473;-72
2022/03/14 10:54:28;;;;;;;5.40;2.37;;;12.30;99.90;;;;;;5040535;28;20544;-73
2022/03/14 10:57:16;;;;;;;3.47;2.20;;;12.30;99.90;;;;;;5043085;28;20535;-74
2022/03/14 10:59:43;;;;;;;5.17;2.40;;;12.40;99.90;;;;;;5057016;28;20417;-72
2022/03/14 11:02:14;;;;;;;4.77;2.20;;;12.40;99.90;;;;;;5057449;28;20809;-73
2022/03/14 11:05:01;;;;;;;5.20;2.30;;;12.40;99.90;;;;;;5042998;28;20434;-72
2022/03/14 11:07:27;;;;;;;9.77;3.10;;;12.30;99.90;;;;;;5058044;28;20476;-73
2022/03/14 11:09:59;;;;;;;5.00;2.40;;;12.20;99.90;;;;;;5057965;28;20470;-72
2022/03/14 11:12:30;;;;;;;4.67;2.27;;;12.20;99.90;;;;;;5039754;28;20445;-74
2022/03/14 11:15:00;;;;;;;7.13;2.17;;;12.20;99.90;;;;;;5057079;28;20434;-74
2022/03/14 11:17:28;;;;;;;7.27;2.10;;;12.40;99.90;;;;;;5052902;28;20461;-73
2022/03/14 11:19:55;;;;;;;5.63;1.90;;;12.50;99.90;;;;;;5058021;28;20472;-74
2022/03/14 11:22:22;;;;;;;5.00;2.70;;;12.40;99.90;;;;;;5053389;28;20449;-72
2022/03/14 11:24:53;;;;;;;4.60;2.27;;;12.40;99.90;;;;;;5054894;28;20548;-72
2022/03/14 11:27:23;;;;;;;5.63;2.20;;;12.40;99.90;;;;;;5056063;28;20430;-72
2022/03/14 11:29:52;;;;;;;6.53;2.70;;;12.40;99.90;;;;;;5053851;28;20422;-72
2022/03/14 11:32:19;;;;;;;3.90;2.10;;;12.50;99.90;;;;;;5053420;28;20465;-71
2022/03/14 11:34:46;;;;;;;3.00;2.20;;;12.70;99.90;;;;;;5053466;28;20425;-72
2022/03/14 11:37:13;;;;;;;5.07;2.20;;;12.70;99.90;;;;;;5055299;28;20471;-74
2022/03/14 11:39:40;;;;;;;3.30;1.90;;;12.80;99.90;;;;;;5053808;28;20949;-73
2022/03/14 11:42:06;;;;;;;6.90;2.23;;;12.80;99.90;;;;;;5054445;28;20583;-74
2022/03/14 11:44:33;;;;;;;3.43;2.17;;;12.70;99.90;;;;;;5056411;28;20451;-74
2022/03/14 11:46:59;;;;;;;5.23;1.93;;;12.70;99.90;;;;;;5058422;28;20446;-73
2022/03/14 11:49:28;;;;;;;3.73;1.90;;;12.80;99.90;;;;;;5040479;28;20433;-72
2022/03/14 11:52:07;;;;;;;3.80;2.37;;;12.80;99.90;;;;;;5054492;28;20450;-72
2022/03/14 11:54:43;;;;;;;5.93;3.73;;;12.80;99.90;;;;;;5058207;28;20444;-72
2022/03/14 11:57:09;;;;;;;2.43;1.80;;;12.90;99.90;;;;;;5056972;28;20880;-72
2022/03/14 11:59:36;;;;;;;3.70;2.30;;;13.20;99.90;;;;;;5048861;28;20483;-72
2022/03/14 12:02:05;;;;;;;3.37;2.27;;;13.40;99.90;;;;;;5063433;28;20788;-73
2022/03/14 12:04:37;;;;;;;5.07;2.93;;;13.70;99.90;;;;;;5063589;28;20943;-72
2022/03/14 12:07:05;;;;;;;5.73;2.10;;;13.70;99.90;;;;;;5059656;28;20923;-73
2022/03/14 12:09:33;;;;;;;4.60;2.10;;;13.70;99.90;;;;;;5059161;28;20472;-71
2022/03/14 12:12:19;;;;;;;7.83;2.73;;;13.60;99.90;;;;;;5058767;28;20481;-72
2022/03/14 12:14:57;;;;;;;10.57;3.03;;;13.50;99.90;;;;;;5038486;28;20430;-72
2022/03/14 12:17:26;;;;;;;3.70;1.83;;;13.30;99.90;;;;;;5057139;28;22819;-72
2022/03/14 12:19:54;;;;;;;2.90;1.90;;;13.30;99.90;;;;;;5042796;28;20438;-73
2022/03/14 12:22:29;;;;;;;2.40;2.17;;;13.50;99.90;;;;;;5056059;28;20453;-73
2022/03/14 12:24:56;;;;;;;3.37;2.10;;;13.50;99.90;;;;;;5038983;28;20438;-71
2022/03/14 12:27:31;;;;;;;3.90;2.00;;;13.50;99.90;;;;;;5046603;28;20610;-72
2022/03/14 12:29:58;;;;;;;4.20;2.10;;;13.50;99.90;;;;;;5059012;28;21024;-70
2022/03/14 12:32:36;;;;;;;5.37;2.13;;;13.50;99.90;;;;;;5062705;28;20491;-72
2022/03/14 12:35:12;;;;;;;5.13;2.50;;;13.60;99.90;;;;;;5046141;28;20494;-72
2022/03/14 12:37:47;;;;;;;4.40;2.33;;;13.60;99.90;;;;;;5059427;28;20464;-72
2022/03/14 12:40:19;;;;;;;3.17;2.20;;;13.60;99.90;;;;;;5044597;28;20484;-72
2022/03/14 12:42:49;;;;;;;3.30;2.03;;;13.70;99.90;;;;;;5039210;28;20442;-74
2022/03/14 12:45:39;;;;;;;4.40;2.20;;;14.20;99.90;;;;;;5055718;28;20445;-72
2022/03/14 12:48:24;;;;;;;3.63;2.17;;;15.10;99.90;;;;;;5060292;28;20808;-74
2022/03/14 12:50:50;;;;;;;4.10;2.27;;;15.90;99.90;;;;;;5060128;28;20435;-73